Time;durP1;ratioP1;P1;durP2;ratioP2;P2;SDS_P1;SDS_P2;PMS_P1;PMS_P2;Temp;Humidity;BMP_temperature;BMP_pressure;BME280_temperature;BME280_humidity;BME280_pressure;Samples;Min_cycle;Max_cycle;Signal;HPM_P1;HPM_P2
2023/06/11 00:00:27;;;;;;;37.88;23.70;;;;;;;-142.57;100.00;115900.28;5012161;28;20037;-85
2023/06/11 00:02:56;;;;;;;37.20;23.77;;;;;;;-142.57;100.00;115900.28;5012229;28;20026;-84
2023/06/11 00:05:24;;;;;;;38.58;24.20;;;;;;;-142.57;100.00;115900.28;5012112;28;20546;-83
2023/06/11 00:07:50;;;;;;;38.58;24.70;;;;;;;-142.57;100.00;115900.28;5012064;28;20058;-83
2023/06/11 00:10:16;;;;;;;41.95;24.17;;;;;;;-142.57;100.00;115900.28;5012152;28;20471;-83
2023/06/11 00:12:42;;;;;;;37.50;24.30;;;;;;;-142.57;100.00;115900.28;5012186;28;20096;-83
2023/06/11 00:15:07;;;;;;;31.33;23.17;;;;;;;-142.57;100.00;115900.28;5012052;28;20049;-83
2023/06/11 00:17:33;;;;;;;36.00;23.27;;;;;;;-142.57;100.00;115900.28;5012173;28;20034;-82
2023/06/11 00:20:01;;;;;;;38.83;22.20;;;;;;;-142.57;100.00;115900.28;5012118;28;20042;-83
2023/06/11 00:22:30;;;;;;;37.63;22.48;;;;;;;-142.57;100.00;115900.28;5008713;28;20119;-84
2023/06/11 00:24:56;;;;;;;37.90;20.88;;;;;;;-142.57;100.00;115900.28;5011855;28;20117;-84
2023/06/11 00:27:22;;;;;;;28.60;20.00;;;;;;;-142.57;100.00;115900.28;5013976;28;20452;-83
2023/06/11 00:29:47;;;;;;;34.72;21.65;;;;;;;-142.57;100.00;115900.28;5014491;28;20030;-84
2023/06/11 00:32:13;;;;;;;32.20;21.15;;;;;;;-142.57;100.00;115900.28;5015492;28;20041;-84
2023/06/11 00:34:40;;;;;;;31.10;18.73;;;;;;;-142.57;100.00;115900.28;5013926;28;20185;-83
2023/06/11 00:37:05;;;;;;;33.13;19.17;;;;;;;-142.57;100.00;115900.28;5015322;28;20445;-84
2023/06/11 00:39:31;;;;;;;24.10;15.65;;;;;;;-142.57;100.00;115900.28;5015475;28;20097;-83
2023/06/11 00:41:57;;;;;;;31.02;16.02;;;;;;;-142.57;100.00;115900.28;5015227;28;20402;-84
2023/06/11 00:44:23;;;;;;;19.75;13.60;;;;;;;-142.57;100.00;115900.28;5015273;28;20052;-84
2023/06/11 00:46:51;;;;;;;21.85;15.15;;;;;;;-142.57;100.00;115900.28;5015259;28;20482;-84
2023/06/11 00:49:17;;;;;;;24.48;16.35;;;;;;;-142.57;100.00;115900.28;5015492;28;20104;-84
2023/06/11 00:51:45;;;;;;;31.80;15.82;;;;;;;-142.57;100.00;115900.28;5015226;28;20029;-83
2023/06/11 00:54:12;;;;;;;24.98;16.15;;;;;;;-142.57;100.00;115900.28;5015115;28;20037;-83
2023/06/11 00:56:41;;;;;;;28.08;16.27;;;;;;;-142.57;100.00;115900.28;5013728;28;20037;-84
2023/06/11 00:59:07;;;;;;;25.15;15.45;;;;;;;-142.57;100.00;115900.28;5013806;28;20030;-82
2023/06/11 01:01:41;;;;;;;26.15;14.57;;;;;;;-142.57;100.00;115900.28;5014800;28;20030;-83
2023/06/11 01:04:13;;;;;;;29.35;14.82;;;;;;;-142.57;100.00;115900.28;5015073;28;20046;-84
2023/06/11 01:06:46;;;;;;;23.40;14.48;;;;;;;-142.57;100.00;115900.28;5013773;28;20034;-82
2023/06/11 01:09:12;;;;;;;23.48;15.63;;;;;;;-142.57;100.00;115900.28;5013819;28;20041;-83
2023/06/11 01:11:38;;;;;;;22.38;14.60;;;;;;;-142.57;100.00;115900.28;5014838;28;20438;-83
2023/06/11 01:14:05;;;;;;;22.90;14.75;;;;;;;-142.57;100.00;115900.28;5013569;28;20025;-84
2023/06/11 01:16:45;;;;;;;26.85;15.48;;;;;;;-142.57;100.00;115900.28;5014907;28;20490;-84
2023/06/11 01:19:33;;;;;;;27.25;15.30;;;;;;;-142.57;100.00;115900.28;5014363;28;20060;-83
2023/06/11 01:22:16;;;;;;;27.73;15.18;;;;;;;-142.57;100.00;115900.28;5013421;28;20041;-82
2023/06/11 01:24:54;;;;;;;21.42;15.07;;;;;;;-142.57;100.00;115900.28;5013504;28;20038;-83
2023/06/11 01:27:48;;;;;;;23.92;15.93;;;;;;;-142.57;100.00;115900.28;5013042;28;20128;-82
2023/06/11 01:30:20;;;;;;;25.27;15.88;;;;;;;-142.57;100.00;115900.28;5013159;28;20030;-85
2023/06/11 01:32:56;;;;;;;;;;;;;;;-142.57;100.00;115900.28;5012503;28;20026;-81
2023/06/11 01:35:27;;;;;;;23.55;15.07;;;;;;;-142.57;100.00;115900.28;5004505;28;20389;-83
2023/06/11 01:37:58;;;;;;;32.22;15.35;;;;;;;-142.57;100.00;115900.28;5011252;28;20137;-83
2023/06/11 01:40:31;;;;;;;28.38;14.88;;;;;;;-142.57;100.00;115900.28;5013866;28;20033;-85
2023/06/11 01:42:58;;;;;;;29.55;15.23;;;;;;;-142.57;100.00;115900.28;5014167;28;20137;-84
2023/06/11 01:45:24;;;;;;;25.52;17.02;;;;;;;-142.57;100.00;115900.28;5012366;28;20537;-84
2023/06/11 01:47:52;;;;;;;27.50;16.70;;;;;;;-142.57;100.00;115900.28;5012918;28;20173;-83
2023/06/11 01:50:19;;;;;;;29.75;16.73;;;;;;;-142.57;100.00;115900.28;5013816;28;20105;-84
2023/06/11 01:52:46;;;;;;;28.00;17.73;;;;;;;-142.57;100.00;115900.28;5013814;28;20040;-84
2023/06/11 01:55:13;;;;;;;34.95;18.40;;;;;;;-142.57;100.00;115900.28;5014162;28;20034;-85
2023/06/11 01:57:38;;;;;;;42.97;20.83;;;;;;;-142.57;100.00;115900.28;5015081;28;20594;-84
2023/06/11 02:00:06;;;;;;;32.90;20.90;;;;;;;-142.57;100.00;115900.28;5014051;28;20029;-83
2023/06/11 02:02:46;;;;;;;32.15;21.40;;;;;;;-142.57;100.00;115900.28;5015112;28;20041;-84
2023/06/11 02:05:14;;;;;;;36.50;21.33;;;;;;;-142.57;100.00;115900.28;5012494;28;20034;-84
2023/06/11 02:07:40;;;;;;;34.42;19.40;;;;;;;-142.57;100.00;115900.28;5012938;28;20487;-83
2023/06/11 02:10:06;;;;;;;33.20;20.45;;;;;;;-142.57;100.00;115900.28;5014121;28;20136;-83
2023/06/11 02:12:32;;;;;;;29.85;18.17;;;;;;;-142.57;100.00;115900.28;5013613;28;20543;-83
2023/06/11 02:14:58;;;;;;;31.30;17.90;;;;;;;-142.57;100.00;115900.28;5013509;28;20038;-84
2023/06/11 02:17:25;;;;;;;33.28;16.00;;;;;;;-142.57;100.00;115900.28;5015141;28;20092;-85
2023/06/11 02:19:50;;;;;;;30.00;15.98;;;;;;;-142.57;100.00;115900.28;5013221;28;20045;-84
2023/06/11 02:22:16;;;;;;;43.25;15.60;;;;;;;-142.57;100.00;115900.28;5012851;28;20026;-85
2023/06/11 02:24:41;;;;;;;24.75;15.18;;;;;;;-142.57;100.00;115900.28;5013652;28;20042;-84
2023/06/11 02:27:07;;;;;;;24.75;14.98;;;;;;;-142.57;100.00;115900.28;5012764;28;20041;-84
2023/06/11 02:29:33;;;;;;;22.48;14.40;;;;;;;-142.57;100.00;115900.28;5013231;28;20113;-84
2023/06/11 02:31:59;;;;;;;23.77;12.45;;;;;;;-142.57;100.00;115900.28;5012695;28;20041;-84
2023/06/11 02:34:25;;;;;;;20.08;11.38;;;;;;;-142.57;100.00;115900.28;5012508;28;20030;-83
2023/06/11 02:36:51;;;;;;;26.77;12.35;;;;;;;-142.57;100.00;115900.28;5014325;28;20030;-83
2023/06/11 02:39:17;;;;;;;22.63;12.15;;;;;;;-142.57;100.00;115900.28;5012944;28;20030;-84
2023/06/11 02:41:43;;;;;;;23.33;12.02;;;;;;;-142.57;100.00;115900.28;5014847;28;20042;-84
2023/06/11 02:44:09;;;;;;;23.52;11.45;;;;;;;-142.57;100.00;115900.28;5013890;28;20111;-85
2023/06/11 02:46:35;;;;;;;19.73;11.57;;;;;;;-142.57;100.00;115900.28;5013737;28;20663;-83
2023/06/11 02:49:00;;;;;;;23.55;12.65;;;;;;;-142.57;100.00;115900.28;5013785;28;20030;-83
2023/06/11 02:51:26;;;;;;;19.52;12.40;;;;;;;-142.57;100.00;115900.28;5011693;28;20446;-83
2023/06/11 02:53:51;;;;;;;18.35;11.32;;;;;;;-142.57;100.00;115900.28;5013408;28;20072;-83
2023/06/11 02:56:17;;;;;;;23.17;12.68;;;;;;;-142.57;100.00;115900.28;5012566;28;20053;-84
2023/06/11 02:58:44;;;;;;;22.00;12.43;;;;;;;-142.57;100.00;115900.28;5014386;28;20034;-86
2023/06/11 03:01:09;;;;;;;24.50;13.90;;;;;;;-142.57;100.00;115900.28;5013336;28;20124;-83
2023/06/11 03:03:35;;;;;;;28.92;14.15;;;;;;;-142.57;100.00;115900.28;5014484;28;20124;-82
2023/06/11 03:06:01;;;;;;;29.52;14.27;;;;;;;-142.57;100.00;115900.28;5013267;28;20038;-84
2023/06/11 03:08:26;;;;;;;29.75;15.20;;;;;;;-142.57;100.00;115900.28;5014564;28;20114;-83
2023/06/11 03:10:55;;;;;;;34.50;16.33;;;;;;;-142.57;100.00;115900.28;5013078;28;20026;-86
2023/06/11 03:13:20;;;;;;;26.67;15.00;;;;;;;-142.57;100.00;115900.28;5013000;28;20022;-83
2023/06/11 03:15:49;;;;;;;32.00;15.55;;;;;;;-142.57;100.00;115900.28;5012423;28;20450;-83
2023/06/11 03:18:15;;;;;;;30.60;16.05;;;;;;;-142.57;100.00;115900.28;5012895;28;20040;-84
2023/06/11 03:20:41;;;;;;;25.27;13.82;;;;;;;-142.57;100.00;115900.28;5012278;28;20037;-83
2023/06/11 03:23:09;;;;;;;28.70;14.93;;;;;;;-142.57;100.00;115900.28;5012696;28;20033;-86
2023/06/11 03:25:35;;;;;;;25.63;15.98;;;;;;;-142.57;100.00;115900.28;5012245;28;20052;-83
2023/06/11 03:28:02;;;;;;;27.30;14.02;;;;;;;-142.57;100.00;115900.28;5012796;28;20034;-85
2023/06/11 03:30:28;;;;;;;21.73;14.13;;;;;;;-142.57;100.00;115900.28;4996842;28;20048;-83
2023/06/11 03:32:53;;;;;;;24.40;14.20;;;;;;;-142.57;100.00;115900.28;5014860;28;20125;-84
2023/06/11 03:35:19;;;;;;;26.15;15.07;;;;;;;-142.57;100.00;115900.28;5012824;28;20471;-84
2023/06/11 03:37:45;;;;;;;24.42;14.73;;;;;;;-142.57;100.00;115900.28;5012747;28;20180;-84
2023/06/11 03:40:16;;;;;;;25.25;14.15;;;;;;;-142.57;100.00;115900.28;4996285;28;20034;-85
2023/06/11 03:42:42;;;;;;;33.38;14.60;;;;;;;-142.57;100.00;115900.28;5011240;28;20092;-83
2023/06/11 03:45:07;;;;;;;29.80;13.85;;;;;;;-142.57;100.00;115900.28;5011962;28;20052;-84
2023/06/11 03:47:34;;;;;;;21.25;12.52;;;;;;;-142.57;100.00;115900.28;5011977;28;20029;-86
2023/06/11 03:49:59;;;;;;;22.98;12.02;;;;;;;-142.57;100.00;115900.28;5014022;28;20038;-84
2023/06/11 03:52:25;;;;;;;26.42;11.95;;;;;;;-142.57;100.00;115900.28;5017412;28;20030;-82
2023/06/11 03:54:51;;;;;;;23.05;11.35;;;;;;;-142.57;100.00;115900.28;5021787;28;20080;-83
2023/06/11 03:57:18;;;;;;;23.88;11.45;;;;;;;-142.57;100.00;115900.28;5023990;28;20092;-83
2023/06/11 03:59:44;;;;;;;27.58;12.00;;;;;;;-142.57;100.00;115900.28;5020418;28;20117;-84
2023/06/11 04:02:10;;;;;;;22.23;11.88;;;;;;;-142.57;100.00;115900.28;5006957;28;20122;-85
2023/06/11 04:04:36;;;;;;;24.98;11.55;;;;;;;-142.57;100.00;115900.28;5023294;28;20040;-84
2023/06/11 04:07:03;;;;;;;24.23;11.82;;;;;;;-142.57;100.00;115900.28;5025852;28;20060;-85
2023/06/11 04:09:28;;;;;;;23.05;10.27;;;;;;;-142.57;100.00;115900.28;5026558;28;20022;-86
2023/06/11 04:11:54;;;;;;;15.40;9.25;;;;;;;-142.57;100.00;115900.28;5026011;28;20034;-84
2023/06/11 04:14:20;;;;;;;18.67;9.27;;;;;;;-142.57;100.00;115900.28;5023689;28;20468;-85
2023/06/11 04:16:46;;;;;;;12.23;8.15;;;;;;;-142.57;100.00;115900.28;5024827;28;20180;-86
2023/06/11 04:19:12;;;;;;;19.75;8.98;;;;;;;-142.57;100.00;115900.28;5024907;28;20033;-85
2023/06/11 04:21:38;;;;;;;16.83;9.02;;;;;;;-142.57;100.00;115900.28;5024145;28;20030;-83
2023/06/11 04:24:04;;;;;;;19.92;9.13;;;;;;;-142.57;100.00;115900.28;5023657;28;20030;-84
2023/06/11 04:26:31;;;;;;;17.38;8.57;;;;;;;-142.57;100.00;115900.28;5023644;28;20042;-86
2023/06/11 04:28:57;;;;;;;19.17;9.07;;;;;;;-142.57;100.00;115900.28;5023293;28;20030;-86
2023/06/11 04:31:26;;;;;;;16.45;8.48;;;;;;;-142.57;100.00;115900.28;5017893;28;20022;-85
2023/06/11 04:33:55;;;;;;;14.98;8.57;;;;;;;-142.57;100.00;115900.28;5016102;28;20513;-86
2023/06/11 04:36:24;;;;;;;16.23;9.23;;;;;;;-142.57;100.00;115900.28;5016886;28;20030;-85
2023/06/11 04:38:51;;;;;;;15.75;8.63;;;;;;;-142.57;100.00;115900.28;5017838;28;20087;-89
2023/06/11 04:41:18;;;;;;;17.33;8.45;;;;;;;-142.57;100.00;115900.28;5017613;28;20022;-85
2023/06/11 04:43:49;;;;;;;13.52;8.43;;;;;;;-142.57;100.00;115900.28;5016492;28;20037;-84
2023/06/11 04:46:16;;;;;;;13.93;8.80;;;;;;;-142.57;100.00;115900.28;5017803;28;20083;-85
2023/06/11 04:48:42;;;;;;;14.13;8.50;;;;;;;-142.57;100.00;115900.28;5004233;28;20524;-86
2023/06/11 04:51:11;;;;;;;17.85;8.80;;;;;;;-142.57;100.00;115900.28;5016398;28;20538;-87
2023/06/11 04:53:41;;;;;;;18.73;8.70;;;;;;;-142.57;100.00;115900.28;5018979;28;20398;-87
2023/06/11 04:56:09;;;;;;;17.00;8.57;;;;;;;-142.57;100.00;115900.28;5018424;28;20060;-86
2023/06/11 04:58:37;;;;;;;15.20;8.60;;;;;;;-142.57;100.00;115900.28;5019861;28;20030;-88
2023/06/11 05:01:05;;;;;;;14.25;8.60;;;;;;;-142.57;100.00;115900.28;5018148;28;20096;-86
2023/06/11 05:03:36;;;;;;;12.07;7.85;;;;;;;-142.57;100.00;115900.28;5017133;28;20120;-87
2023/06/11 05:06:05;;;;;;;15.97;7.40;;;;;;;-142.57;100.00;115900.28;5020547;28;20573;-86
2023/06/11 05:08:33;;;;;;;14.27;7.82;;;;;;;-142.57;100.00;115900.28;5021377;28;20033;-85
2023/06/11 05:11:03;;;;;;;16.02;9.10;;;;;;;-142.57;100.00;115900.28;5018953;28;20038;-89
2023/06/11 05:13:31;;;;;;;24.98;9.13;;;;;;;-142.57;100.00;115900.28;5017531;28;20068;-85
2023/06/11 05:16:01;;;;;;;17.13;8.73;;;;;;;-142.57;100.00;115900.28;5016608;28;20030;-86
2023/06/11 05:18:28;;;;;;;16.50;10.00;;;;;;;-142.57;100.00;115900.28;5018569;28;20030;-88
2023/06/11 05:20:56;;;;;;;21.45;8.48;;;;;;;-142.57;100.00;115900.28;5015615;28;20030;-88
2023/06/11 05:23:29;;;;;;;15.50;8.88;;;;;;;-142.57;100.00;115900.28;5015315;28;20021;-86
2023/06/11 05:26:01;;;;;;;12.98;8.52;;;;;;;-142.57;100.00;115900.28;5015507;28;20438;-86
2023/06/11 05:28:28;;;;;;;15.38;8.55;;;;;;;-142.57;100.00;115900.28;5019554;28;20068;-87
2023/06/11 05:30:59;;;;;;;15.90;7.45;;;;;;;-142.57;100.00;115900.28;5022421;28;20391;-89
2023/06/11 05:33:26;;;;;;;20.52;8.15;;;;;;;-142.57;100.00;115900.28;5004291;28;20161;-87
2023/06/11 05:35:52;;;;;;;20.63;8.00;;;;;;;-142.57;100.00;115900.28;5016451;28;20042;-87
2023/06/11 05:38:18;;;;;;;23.02;7.05;;;;;;;-142.57;100.00;115900.28;5016131;28;20506;-88
2023/06/11 05:40:44;;;;;;;19.05;7.22;;;;;;;-142.57;100.00;115900.28;5015203;28;20129;-87
2023/06/11 05:43:09;;;;;;;11.05;7.68;;;;;;;-142.57;100.00;115900.28;5015350;28;20467;-86
2023/06/11 05:45:36;;;;;;;25.65;8.88;;;;;;;-142.57;100.00;115900.28;5000700;28;20118;-87
2023/06/11 05:48:05;;;;;;;24.75;9.10;;;;;;;-142.57;100.00;115900.28;5015879;28;20034;-89
2023/06/11 05:50:33;;;;;;;23.23;8.80;;;;;;;-142.57;100.00;115900.28;5000213;28;20037;-87
2023/06/11 05:52:58;;;;;;;13.68;8.07;;;;;;;-142.57;100.00;115900.28;5014267;28;20092;-87
2023/06/11 05:55:24;;;;;;;17.67;8.65;;;;;;;-142.57;100.00;115900.28;5015705;28;20033;-87
2023/06/11 05:57:49;;;;;;;14.30;9.25;;;;;;;-142.57;100.00;115900.28;5014498;28;20123;-87
2023/06/11 06:00:17;;;;;;;15.85;8.82;;;;;;;-142.57;100.00;115900.28;5015655;28;20045;-87
2023/06/11 06:02:47;;;;;;;14.70;9.60;;;;;;;-142.57;100.00;115900.28;5017720;28;20424;-84
2023/06/11 06:05:19;;;;;;;14.30;8.57;;;;;;;-142.57;100.00;115900.28;5016882;28;20109;-88
2023/06/11 06:07:46;;;;;;;19.52;9.88;;;;;;;-142.57;100.00;115900.28;5015338;28;20566;-88
2023/06/11 06:10:11;;;;;;;17.33;10.73;;;;;;;-142.57;100.00;115900.28;5015688;28;20050;-85
2023/06/11 06:12:37;;;;;;;19.77;10.30;;;;;;;-142.57;100.00;115900.28;5016880;28;20108;-87
2023/06/11 06:15:04;;;;;;;19.55;11.10;;;;;;;-142.57;100.00;115900.28;5017152;28;20049;-87
2023/06/11 06:17:30;;;;;;;16.50;10.95;;;;;;;-142.57;100.00;115900.28;5003753;28;20109;-86
2023/06/11 06:19:56;;;;;;;23.67;11.60;;;;;;;-142.57;100.00;115900.28;5020562;28;20061;-89
2023/06/11 06:22:22;;;;;;;25.08;10.65;;;;;;;-142.57;100.00;115900.28;5015780;28;20026;-88
2023/06/11 06:24:50;;;;;;;20.75;11.88;;;;;;;-142.57;100.00;115900.28;5017378;28;20041;-90
2023/06/11 06:27:17;;;;;;;25.02;12.05;;;;;;;-142.57;100.00;115900.28;5017688;28;20106;-88
2023/06/11 06:29:43;;;;;;;16.23;10.73;;;;;;;-142.57;100.00;115900.28;5001602;28;20037;-89
2023/06/11 06:32:10;;;;;;;21.92;12.50;;;;;;;-142.57;100.00;115900.28;5022153;28;20045;-90
2023/06/11 06:34:35;;;;;;;18.98;12.52;;;;;;;-142.57;100.00;115900.28;5019775;28;20019;-89
2023/06/11 06:37:16;;;;;;;26.05;14.15;;;;;;;-142.57;100.00;115900.28;5024032;28;20037;-89
2023/06/11 06:39:52;;;;;;;23.08;12.75;;;;;;;-142.57;100.00;115900.28;5062670;23;20038;-90
2023/06/11 06:42:18;;;;;;;25.23;13.15;;;;;;;-142.57;100.00;115900.28;5027828;28;20049;-88
2023/06/11 06:44:47;;;;;;;19.65;11.52;;;;;;;-142.57;100.00;115900.28;5008744;28;20049;-86
2023/06/11 06:47:15;;;;;;;26.65;14.00;;;;;;;-142.57;100.00;115900.28;5022275;28;20034;-85
2023/06/11 06:49:43;;;;;;;24.27;15.60;;;;;;;-142.57;100.00;115900.28;5024084;28;20029;-87
2023/06/11 06:52:12;;;;;;;27.42;14.23;;;;;;;-142.57;100.00;115900.28;5034371;28;20030;-85
2023/06/11 06:54:38;;;;;;;19.98;12.98;;;;;;;-142.57;100.00;115900.28;5049765;28;20391;-87
2023/06/11 06:57:07;;;;;;;23.17;13.38;;;;;;;-142.57;100.00;115900.28;5030019;28;20026;-86
2023/06/11 06:59:33;;;;;;;22.15;12.25;;;;;;;-142.57;100.00;115900.28;5026067;28;20039;-86
2023/06/11 07:01:59;;;;;;;22.60;13.82;;;;;;;-142.57;100.00;115900.28;5015428;28;20030;-85
2023/06/11 07:04:25;;;;;;;22.02;13.98;;;;;;;-142.57;94.94;115900.28;5018985;28;20038;-87
2023/06/11 07:06:51;;;;;;;20.40;13.50;;;;;;;-142.57;91.25;115900.28;5012176;28;20475;-85
2023/06/11 07:09:18;;;;;;;20.95;13.63;;;;;;;-142.57;100.00;115900.28;5051699;28;20026;-86
2023/06/11 07:11:48;;;;;;;24.85;14.57;;;;;;;-142.57;99.55;115900.28;5014587;28;20065;-87
2023/06/11 07:14:14;;;;;;;24.60;14.80;;;;;;;-142.57;99.01;115900.28;5033023;28;20049;-85
2023/06/11 07:16:40;;;;;;;24.08;13.98;;;;;;;-142.57;100.00;115900.28;5031678;28;20030;-86
2023/06/11 07:19:06;;;;;;;21.58;15.10;;;;;;;-142.57;95.14;115900.28;5029303;28;20126;-86
2023/06/11 07:21:35;;;;;;;27.85;15.02;;;;;;;-142.57;81.18;115900.28;5030450;28;20065;-85
2023/06/11 07:24:04;;;;;;;23.33;14.32;;;;;;;-142.57;75.10;115900.28;5032994;28;20038;-90
2023/06/11 07:26:30;;;;;;;27.15;15.43;;;;;;;-142.57;76.09;115900.28;5044138;28;20051;-87
2023/06/11 07:28:57;;;;;;;25.45;14.77;;;;;;;-142.57;73.40;115900.28;5018223;28;20035;-85
2023/06/11 07:31:23;;;;;;;21.23;13.90;;;;;;;-142.57;68.72;115900.28;5001655;28;20073;-85
2023/06/11 07:33:49;;;;;;;25.65;15.70;;;;;;;-142.57;66.12;115900.28;4995972;28;20030;-86
2023/06/11 07:36:35;;;;;;;27.17;14.88;;;;;;;-142.57;65.77;115900.28;5012752;28;20032;-84
2023/06/11 07:39:02;;;;;;;20.23;14.98;;;;;;;-142.57;61.40;115900.28;5016600;28;20391;-87
2023/06/11 07:41:28;;;;;;;30.00;14.75;;;;;;;-142.57;60.77;115900.28;5018194;28;20046;-89
2023/06/11 07:43:53;;;;;;;25.80;15.23;;;;;;;-142.57;58.24;115900.28;5030586;28;20030;-87
2023/06/11 07:46:21;;;;;;;21.73;15.57;;;;;;;-142.57;60.20;115900.28;4996268;28;20039;-85
2023/06/11 07:48:48;;;;;;;25.90;15.43;;;;;;;-142.57;63.54;115900.28;4998977;28;20089;-86
2023/06/11 07:51:14;;;;;;;18.45;12.90;;;;;;;-142.57;56.42;115900.28;5010694;28;20033;-87
2023/06/11 07:53:41;;;;;;;19.67;14.25;;;;;;;-142.57;58.18;115900.28;5014529;28;20041;-87
2023/06/11 07:56:08;;;;;;;19.13;12.73;;;;;;;-142.57;55.99;115900.28;5016635;28;20053;-85
2023/06/11 07:58:33;;;;;;;18.73;12.07;;;;;;;-142.57;58.94;115900.28;5016551;28;20030;-84
2023/06/11 08:01:02;;;;;;;21.92;12.88;;;;;;;-142.57;59.67;115900.28;5013804;28;20041;-85
2023/06/11 08:03:28;;;;;;;22.70;13.85;;;;;;;-142.57;53.96;115900.28;5006021;28;20135;-84
2023/06/11 08:05:53;;;;;;;20.13;13.00;;;;;;;-142.57;51.77;115900.28;5008021;28;20398;-84
2023/06/11 08:08:19;;;;;;;20.17;13.70;;;;;;;-142.57;55.98;115900.28;5000954;28;20121;-88
2023/06/11 08:10:45;;;;;;;19.35;12.40;;;;;;;-142.57;51.08;115900.28;5002653;28;20036;-86
2023/06/11 08:13:11;;;;;;;20.95;13.95;;;;;;;-142.57;56.21;115900.28;4988142;28;20447;-88
2023/06/11 08:15:37;;;;;;;18.77;12.73;;;;;;;-142.57;54.23;115900.28;5012277;28;20072;-87
2023/06/11 08:18:02;;;;;;;21.15;13.38;;;;;;;-142.57;59.63;115900.28;5007977;28;20030;-91
2023/06/11 08:20:28;;;;;;;16.45;12.52;;;;;;;-142.57;64.38;115900.28;5009166;28;20109;-86
2023/06/11 08:22:53;;;;;;;17.98;11.88;;;;;;;-142.57;58.23;115900.28;5009065;28;20554;-88
2023/06/11 08:25:19;;;;;;;18.73;11.82;;;;;;;-142.57;58.03;115900.28;5006467;28;20034;-87
2023/06/11 08:27:45;;;;;;;17.40;13.18;;;;;;;-142.57;58.28;115900.28;5005988;28;20053;-88
2023/06/11 08:30:11;;;;;;;18.50;12.50;;;;;;;-142.57;59.01;115900.28;4994919;28;20117;-87
2023/06/11 08:32:36;;;;;;;15.25;10.55;;;;;;;-142.57;56.67;115900.28;5006532;28;20034;-85
2023/06/11 08:35:05;;;;;;;17.38;11.30;;;;;;;-142.57;53.93;115900.28;4990319;28;20026;-85
2023/06/11 08:37:31;;;;;;;17.98;9.63;;;;;;;-142.57;53.82;115900.28;5000070;28;20034;-89
2023/06/11 08:39:56;;;;;;;16.38;11.20;;;;;;;-142.57;56.59;115900.28;5015606;28;20026;-83
2023/06/11 08:42:22;;;;;;;15.93;10.45;;;;;;;-142.57;57.53;115900.28;5025593;28;20041;-87
2023/06/11 08:44:48;;;;;;;16.33;10.25;;;;;;;-142.57;57.95;115900.28;5049161;28;20045;-87
2023/06/11 08:47:14;;;;;;;20.55;9.73;;;;;;;-142.57;54.90;115900.28;5031022;28;20034;-86
2023/06/11 08:49:43;;;;;;;19.30;9.00;;;;;;;-142.57;54.02;115900.28;5021616;28;20029;-87
2023/06/11 08:52:10;;;;;;;18.17;9.65;;;;;;;-142.57;52.82;115900.28;5029426;28;20043;-84
2023/06/11 08:54:35;;;;;;;14.88;8.02;;;;;;;-142.57;52.35;115900.28;5033008;28;20030;-87
2023/06/11 08:57:01;;;;;;;15.73;9.00;;;;;;;-142.57;48.32;115900.28;5023718;28;20121;-86
2023/06/11 08:59:27;;;;;;;12.57;8.18;;;;;;;-142.57;47.25;115900.28;5028162;28;20536;-84
2023/06/11 09:01:55;;;;;;;12.02;8.48;;;;;;;-142.57;48.72;115900.28;5019804;28;20036;-86
2023/06/11 09:04:21;;;;;;;14.65;7.25;;;;;;;-142.57;46.56;115900.28;5019624;28;20037;-84
2023/06/11 09:06:57;;;;;;;14.25;8.00;;;;;;;-142.57;46.20;115900.28;5025108;28;20045;-85
2023/06/11 09:09:23;;;;;;;10.98;7.32;;;;;;;-142.57;48.53;115900.28;5040725;28;20361;-84
2023/06/11 09:11:48;;;;;;;16.63;8.73;;;;;;;-142.57;48.89;115900.28;5028208;28;20033;-85
2023/06/11 09:14:14;;;;;;;9.10;5.50;;;;;;;-142.57;45.56;115900.28;5028913;28;20092;-84
2023/06/11 09:16:42;;;;;;;12.40;7.68;;;;;;;-142.57;46.93;115900.28;5041197;28;20044;-84
2023/06/11 09:19:21;;;;;;;14.95;9.15;;;;;;;-142.57;47.73;115900.28;5023174;28;20042;-90
2023/06/11 09:21:51;;;;;;;16.67;9.95;;;;;;;-142.57;49.35;115900.28;5023425;28;20038;-88
2023/06/11 09:24:21;;;;;;;16.45;9.38;;;;;;;-142.57;47.30;115900.28;5025654;28;20034;-88
2023/06/11 09:26:57;;;;;;;17.05;9.32;;;;;;;-142.57;49.01;115900.28;5021307;28;20037;-84
2023/06/11 09:29:27;;;;;;;16.50;9.20;;;;;;;-142.57;48.31;115900.28;5041728;28;20101;-89
2023/06/11 09:32:08;;;;;;;14.48;7.35;;;;;;;-142.57;44.58;115900.28;5034960;28;20021;-83
2023/06/11 09:34:34;;;;;;;11.13;7.20;;;;;;;-142.57;44.30;115900.28;5037355;28;20046;-87
2023/06/11 09:37:00;;;;;;;10.68;7.43;;;;;;;-142.57;44.71;115900.28;5022409;28;20026;-88
2023/06/11 09:39:27;;;;;;;15.20;8.80;;;;;;;-142.57;46.14;115900.28;5039139;28;20509;-86
2023/06/11 09:41:53;;;;;;;16.38;10.07;;;;;;;-142.57;48.11;115900.28;5024084;28;20038;-85
2023/06/11 09:44:20;;;;;;;14.13;9.23;;;;;;;-142.57;48.22;115900.28;5009380;28;20034;-88
2023/06/11 09:46:48;;;;;;;13.00;8.85;;;;;;;-142.57;49.90;115900.28;5029302;28;20098;-85
2023/06/11 09:49:15;;;;;;;11.07;8.73;;;;;;;-142.57;50.60;115900.28;5024502;28;20395;-86
2023/06/11 09:51:41;;;;;;;16.35;8.73;;;;;;;-142.57;50.20;115900.28;5029124;28;20041;-88
2023/06/11 09:54:07;;;;;;;12.32;7.80;;;;;;;-142.57;49.57;115900.28;5039506;28;20423;-88
2023/06/11 09:56:37;;;;;;;10.23;7.18;;;;;;;-142.57;47.32;115900.28;5045051;28;20577;-87
2023/06/11 09:59:03;;;;;;;9.52;6.22;;;;;;;-142.57;48.83;115900.28;5024702;28;20064;-89
2023/06/11 10:01:30;;;;;;;13.32;6.50;;;;;;;-142.57;47.40;115900.28;5042820;28;20089;-85
2023/06/11 10:03:59;;;;;;;19.83;6.88;;;;;;;-142.57;46.70;115900.28;5036358;28;20066;-89
2023/06/11 10:06:35;;;;;;;13.90;6.35;;;;;;;-142.57;47.32;115900.28;5034471;28;20037;-88
2023/06/11 10:09:07;;;;;;;17.75;8.25;;;;;;;-142.57;48.77;115900.28;5044568;28;20480;-85
2023/06/11 10:11:38;;;;;;;11.10;8.73;;;;;;;-142.57;48.95;115900.28;5039448;28;20038;-84
2023/06/11 10:14:05;;;;;;;15.20;9.25;;;;;;;-142.57;49.75;115900.28;5040556;28;20067;-85
2023/06/11 10:16:32;;;;;;;17.75;7.25;;;;;;;-142.57;50.32;115900.28;5020123;28;20045;-88
2023/06/11 10:19:08;;;;;;;11.93;8.27;;;;;;;-142.57;48.80;115900.28;5027956;28;20102;-86
2023/06/11 10:21:49;;;;;;;18.70;7.63;;;;;;;-142.57;48.04;115900.28;5034685;28;20129;-89
2023/06/11 10:24:28;;;;;;;14.63;6.90;;;;;;;-142.57;46.91;115900.28;5018589;28;20480;-85
2023/06/11 10:27:12;;;;;;;10.52;6.57;;;;;;;-142.57;45.55;115900.28;5020632;28;20048;-88
2023/06/11 10:29:40;;;;;;;11.25;5.70;;;;;;;-142.57;45.14;115900.28;5018477;28;20045;-90
2023/06/11 10:32:19;;;;;;;13.85;4.75;;;;;;;-142.57;45.55;115900.28;5018599;28;20029;-88
2023/06/11 10:34:57;;;;;;;7.80;5.80;;;;;;;-142.57;45.73;115900.28;5031863;28;20518;-84
2023/06/11 10:37:42;;;;;;;32.13;17.45;;;;;;;-142.57;44.06;115900.28;5031417;28;20036;-90
2023/06/11 10:40:08;;;;;;;9.65;6.28;;;;;;;-142.57;44.57;115900.28;5015859;28;20395;-87
2023/06/11 10:42:38;;;;;;;10.13;6.03;;;;;;;-142.57;43.46;115900.28;5018590;28;20495;-86
2023/06/11 10:45:13;;;;;;;9.57;5.10;;;;;;;-142.57;42.93;115900.28;5016107;28;20491;-87
2023/06/11 10:47:47;;;;;;;8.75;4.00;;;;;;;-142.57;43.12;115900.28;5016330;28;20060;-88
2023/06/11 10:50:14;;;;;;;8.10;4.47;;;;;;;-142.57;42.89;115900.28;5014233;28;20177;-87
2023/06/11 10:52:51;;;;;;;11.05;5.15;;;;;;;-142.57;43.14;115900.28;5015825;28;20501;-85
2023/06/11 10:55:18;;;;;;;10.10;5.35;;;;;;;-142.57;42.22;115900.28;5015125;28;20034;-87